Аэропорт
Нарита (RJAA)

 RJAA / NRT

Japan
JP-12
Токио-Нарита
 35.76470, 140.38600  / 141 ft

 RJAA 201730Z 02005KT 9999 FEW020 SCT050 06/03 Q1032 NOSIG RMK 1CU020 3SC050 A3048
 TAF RJAA 201106Z 2012/2118 01012KT 9999 FEW030 BKN040 BECMG 2103/2106 14010KT BECMG 2112/2115 04005KT

2020 © VATRUS division (Privacy Policy)